createdAt,value
2022-10-11T00:03:46.710Z,4.30
2022-10-11T00:07:48.533Z,5.03
2022-10-11T00:11:50.521Z,4.50
2022-10-11T00:15:52.542Z,4.63
2022-10-11T00:19:54.367Z,4.33
2022-10-11T00:23:56.284Z,4.47
2022-10-11T00:27:58.276Z,3.80
2022-10-11T00:32:00.159Z,4.07
2022-10-11T00:36:02.368Z,4.87
2022-10-11T00:40:17.176Z,4.40
2022-10-11T00:44:22.567Z,4.00
2022-10-11T00:48:34.052Z,4.10
2022-10-11T00:52:41.039Z,4.70
2022-10-11T00:56:43.062Z,4.13
2022-10-11T01:00:44.967Z,4.33
2022-10-11T01:05:01.012Z,4.67
2022-10-11T01:09:11.528Z,4.30
2022-10-11T01:14:06.772Z,5.17
2022-10-11T01:18:27.388Z,5.03
2022-10-11T01:22:50.618Z,5.47
2022-10-11T01:27:26.119Z,5.30
2022-10-11T01:31:52.174Z,4.73
2022-10-11T01:36:20.080Z,5.17
2022-10-11T01:40:37.218Z,5.00
2022-10-11T01:44:39.745Z,5.07
2022-10-11T01:48:54.269Z,4.40
2022-10-11T01:52:59.104Z,5.00
2022-10-11T01:57:32.533Z,4.97
2022-10-11T02:02:16.310Z,4.60
2022-10-11T02:06:55.319Z,5.40
2022-10-11T02:11:11.565Z,5.47
2022-10-11T02:15:20.300Z,5.60
2022-10-11T02:19:31.323Z,5.73
2022-10-11T02:23:45.787Z,5.77
2022-10-11T02:27:48.046Z,5.90
2022-10-11T02:31:50.412Z,6.20
2022-10-11T02:35:59.152Z,5.20
2022-10-11T02:40:26.018Z,6.10
2022-10-11T02:44:33.073Z,5.43
2022-10-11T02:48:35.720Z,5.20
2022-10-11T02:52:37.770Z,5.20
2022-10-11T02:56:39.581Z,5.73
2022-10-11T03:00:41.467Z,5.50
2022-10-11T03:04:43.321Z,4.83
2022-10-11T03:08:45.211Z,4.30
2022-10-11T03:12:47.043Z,4.50
2022-10-11T03:16:48.881Z,5.23
2022-10-11T03:20:50.754Z,5.83
2022-10-11T03:24:52.571Z,4.47
2022-10-11T03:28:55.117Z,3.50
2022-10-11T03:32:57.193Z,3.33
2022-10-11T03:36:59.069Z,2.70
2022-10-11T03:41:00.874Z,2.23
2022-10-11T03:45:07.887Z,1.90
2022-10-11T03:49:09.681Z,1.60
2022-10-11T03:53:19.199Z,1.60
2022-10-11T03:57:51.781Z,1.80
2022-10-11T04:01:43.898Z,1.90
2022-10-11T04:05:45.784Z,1.70
2022-10-11T04:09:47.670Z,2.10
2022-10-11T04:13:49.552Z,1.70
2022-10-11T04:17:51.331Z,1.67
2022-10-11T04:21:53.186Z,1.53
2022-10-11T04:25:55.013Z,2.00
2022-10-11T04:29:56.819Z,2.00
2022-10-11T04:33:58.722Z,1.70
2022-10-11T04:38:00.557Z,1.83
2022-10-11T04:42:02.410Z,2.07
2022-10-11T04:46:04.685Z,2.10
2022-10-11T04:50:07.651Z,2.20
2022-10-11T04:54:09.812Z,2.10
2022-10-11T04:58:11.621Z,2.27
2022-10-11T05:02:13.391Z,1.80
2022-10-11T05:06:29.735Z,1.53
2022-10-11T05:10:32.052Z,1.67
2022-10-11T05:14:33.995Z,1.30
2022-10-11T05:18:36.056Z,1.43
2022-10-11T05:22:47.568Z,1.70
2022-10-11T05:27:21.550Z,1.77
2022-10-11T05:31:25.817Z,1.50
2022-10-11T05:35:31.289Z,1.70
2022-10-11T05:39:33.222Z,1.97
2022-10-11T05:43:35.205Z,1.63
2022-10-11T05:47:37.017Z,2.07
2022-10-11T05:51:39.927Z,2.10
2022-10-11T05:55:42.905Z,2.10
2022-10-11T05:59:44.782Z,2.03
2022-10-11T06:03:46.842Z,2.03
2022-10-11T06:07:51.084Z,2.30
2022-10-11T06:11:52.935Z,2.23
2022-10-11T06:15:58.255Z,2.00
2022-10-11T06:20:00.266Z,2.73
2022-10-11T06:24:02.890Z,2.70
2022-10-11T06:28:05.027Z,2.77
2022-10-11T06:32:09.377Z,2.80
2022-10-11T06:36:16.036Z,2.87
2022-10-11T06:40:18.124Z,2.67
2022-10-11T06:44:19.987Z,2.67
2022-10-11T06:48:22.011Z,2.30
2022-10-11T06:52:23.922Z,2.00
2022-10-11T06:56:26.653Z,2.80
2022-10-11T07:00:29.117Z,2.43
2022-10-11T07:04:41.222Z,2.27
2022-10-11T07:08:59.198Z,2.40
2022-10-11T07:13:14.837Z,2.93
2022-10-11T07:17:18.910Z,2.00
2022-10-11T07:21:20.755Z,2.17
2022-10-11T07:25:57.874Z,2.20
2022-10-11T07:29:59.743Z,2.07
2022-10-11T07:34:01.721Z,2.20
2022-10-11T07:38:04.739Z,2.80
2022-10-11T07:42:06.959Z,2.00
2022-10-11T07:46:09.683Z,2.23
2022-10-11T07:50:12.878Z,2.20
2022-10-11T07:54:14.960Z,2.20
2022-10-11T07:58:19.426Z,2.40
2022-10-11T08:02:21.364Z,2.87
2022-10-11T08:06:27.177Z,2.60
2022-10-11T08:11:02.475Z,2.50
2022-10-11T08:15:04.921Z,2.93
2022-10-11T08:19:07.036Z,2.30
2022-10-11T08:23:09.590Z,2.50
2022-10-11T08:27:11.540Z,2.03
2022-10-11T08:31:14.822Z,2.80
2022-10-11T08:35:17.151Z,2.60
2022-10-11T08:39:21.334Z,2.73
2022-10-11T08:43:59.946Z,2.37
2022-10-11T08:48:16.282Z,1.93
2022-10-11T08:52:43.442Z,2.27
2022-10-11T08:56:45.355Z,2.00
2022-10-11T09:00:48.797Z,1.60
2022-10-11T09:04:58.450Z,2.50
2022-10-11T09:09:31.571Z,2.57
2022-10-11T09:14:30.120Z,2.10
2022-10-11T09:19:24.214Z,2.37
2022-10-11T09:24:06.337Z,1.90
2022-10-11T09:29:04.617Z,2.23
2022-10-11T09:33:19.336Z,1.87
2022-10-11T09:38:10.974Z,2.10
2022-10-11T09:43:05.798Z,1.70
2022-10-11T10:02:08.217Z,1.77
2022-10-11T10:06:26.588Z,2.10
2022-10-11T10:10:46.896Z,2.30
2022-10-11T10:15:17.660Z,1.67
2022-10-11T10:19:33.687Z,2.23
2022-10-11T10:28:36.242Z,1.60
2022-10-11T10:33:16.623Z,1.40
2022-10-11T10:37:44.290Z,1.57
2022-10-11T10:42:12.056Z,1.70
2022-10-11T10:46:41.359Z,1.63
2022-10-11T10:50:59.009Z,1.33
2022-10-11T10:55:17.895Z,1.83
2022-10-11T10:59:25.213Z,1.33
2022-10-11T11:03:42.751Z,1.10
2022-10-11T11:08:15.679Z,1.10
2022-10-11T11:12:47.865Z,1.20
2022-10-11T11:17:30.519Z,1.83
2022-10-11T11:21:42.735Z,1.23
2022-10-11T11:26:17.922Z,1.20
2022-10-11T11:30:33.736Z,1.40
2022-10-11T11:34:48.347Z,1.20
2022-10-11T11:38:58.412Z,1.20
2022-10-11T11:43:07.640Z,1.23
2022-10-11T11:47:34.311Z,1.50
2022-10-11T11:51:41.694Z,1.33
2022-10-11T11:56:07.781Z,1.30
2022-10-11T12:00:16.733Z,1.20
2022-10-11T12:04:33.414Z,1.40
2022-10-11T12:08:37.608Z,1.20
2022-10-11T12:12:39.495Z,1.17
2022-10-11T12:17:18.218Z,1.83
2022-10-11T12:21:39.976Z,1.23
2022-10-11T12:25:42.440Z,1.33
2022-10-11T12:29:59.171Z,1.50
2022-10-11T12:34:42.521Z,1.30
2022-10-11T12:38:49.494Z,1.10
2022-10-11T12:43:16.254Z,0.93
2022-10-11T12:48:14.142Z,1.03
2022-10-11T12:53:12.960Z,0.97
2022-10-11T12:57:29.473Z,0.80
2022-10-11T13:01:47.696Z,1.10
2022-10-11T13:06:25.109Z,1.10
2022-10-11T13:10:56.074Z,1.07
2022-10-11T13:15:07.156Z,1.33
2022-10-11T13:19:13.137Z,1.30
2022-10-11T13:23:38.349Z,1.10
2022-10-11T13:27:40.314Z,1.67
2022-10-11T13:31:50.430Z,0.90
2022-10-11T13:35:55.008Z,1.37
2022-10-11T13:40:00.102Z,1.20
2022-10-11T13:44:02.004Z,1.10
2022-10-11T13:48:04.988Z,1.80
2022-10-11T13:52:35.229Z,1.00
2022-10-11T13:56:42.907Z,1.20
2022-10-11T14:01:23.221Z,1.10
2022-10-11T14:05:43.956Z,1.00
2022-10-11T14:14:37.576Z,1.00
2022-10-11T14:18:51.007Z,1.30
2022-10-11T14:23:05.754Z,1.20
2022-10-11T14:32:26.876Z,1.60
2022-10-11T14:36:30.683Z,1.30
2022-10-11T14:40:46.393Z,1.30
2022-10-11T14:44:54.650Z,1.03
2022-10-11T14:48:59.451Z,1.67
2022-10-11T14:53:05.915Z,1.27
2022-10-11T14:57:15.900Z,1.50
2022-10-11T15:01:18.486Z,1.30
2022-10-11T15:05:24.028Z,1.10
2022-10-11T15:09:27.026Z,1.00
2022-10-11T15:13:29.003Z,1.50
2022-10-11T15:17:32.194Z,1.40
2022-10-11T15:21:35.589Z,1.20
2022-10-11T15:25:43.095Z,1.43
2022-10-11T15:29:45.177Z,1.40
2022-10-11T15:33:50.298Z,1.57
2022-10-11T15:37:57.676Z,1.20
2022-10-11T15:42:09.537Z,1.57
2022-10-11T15:50:49.095Z,1.10
2022-10-11T15:54:52.000Z,1.57
2022-10-11T15:58:54.032Z,1.23
2022-10-11T16:03:01.705Z,1.47
2022-10-11T16:07:03.752Z,1.63
2022-10-11T16:11:11.518Z,1.73
2022-10-11T16:15:24.748Z,1.40
2022-10-11T16:20:28.430Z,1.70
2022-10-11T16:24:36.522Z,4.20
2022-10-11T16:28:38.631Z,2.10
2022-10-11T16:32:46.581Z,3.00
2022-10-11T16:36:55.168Z,2.93
2022-10-11T16:41:24.657Z,4.90
2022-10-11T16:45:40.437Z,2.70
2022-10-11T16:49:50.315Z,2.60
2022-10-11T16:53:58.030Z,2.57
2022-10-11T16:58:05.057Z,2.90
2022-10-11T17:02:22.920Z,2.87
2022-10-11T17:06:24.809Z,3.47
2022-10-11T17:10:43.663Z,2.77
2022-10-11T17:14:50.505Z,3.50
2022-10-11T17:18:54.763Z,4.07
2022-10-11T17:23:09.026Z,4.13
2022-10-11T17:27:38.052Z,6.27
2022-10-11T17:32:03.379Z,6.20
2022-10-11T17:36:43.808Z,5.60
2022-10-11T17:53:17.034Z,5.27
2022-10-11T18:10:02.247Z,3.70
2022-10-11T18:14:40.529Z,4.23
2022-10-11T18:19:09.038Z,4.77
2022-10-11T18:23:23.802Z,4.20
2022-10-11T18:27:33.523Z,5.00
2022-10-11T18:31:35.578Z,6.27
2022-10-11T18:35:39.426Z,5.40
2022-10-11T18:39:48.783Z,6.00
2022-10-11T18:43:55.306Z,5.50
2022-10-11T18:47:59.586Z,5.30
2022-10-11T18:52:03.874Z,5.63
2022-10-11T18:56:17.125Z,5.03
2022-10-11T19:00:40.864Z,4.97
2022-10-11T19:04:53.443Z,6.23
2022-10-11T19:09:23.464Z,5.07
2022-10-11T19:13:36.569Z,5.37
2022-10-11T19:34:15.543Z,5.10
2022-10-11T19:42:23.435Z,6.30
2022-10-11T19:46:50.396Z,6.30
2022-10-11T19:50:58.132Z,5.93
2022-10-11T19:55:00.576Z,5.80
2022-10-11T19:59:06.520Z,6.93
2022-10-11T20:03:09.110Z,6.33
2022-10-11T20:07:11.169Z,5.70
2022-10-11T20:11:13.491Z,6.17
2022-10-11T20:15:15.575Z,5.83
2022-10-11T20:19:17.626Z,6.00
2022-10-11T20:23:23.735Z,5.73
2022-10-11T20:27:31.934Z,4.93
2022-10-11T20:31:35.332Z,5.70
2022-10-11T20:35:38.549Z,4.63
2022-10-11T20:39:40.528Z,4.73
2022-10-11T20:43:42.937Z,4.50
2022-10-11T20:47:45.019Z,4.57
2022-10-11T20:51:46.842Z,5.07
2022-10-11T20:55:49.076Z,4.70
2022-10-11T20:59:50.904Z,4.43
2022-10-11T21:03:52.897Z,4.37
2022-10-11T21:07:54.837Z,4.63
2022-10-11T21:11:56.685Z,4.80
2022-10-11T21:16:12.483Z,4.90
2022-10-11T21:20:14.442Z,4.60
2022-10-11T21:24:16.220Z,4.80
2022-10-11T21:28:18.049Z,5.00
2022-10-11T21:32:19.903Z,5.97
2022-10-11T21:36:23.278Z,5.13
2022-10-11T21:40:25.713Z,4.83
2022-10-11T21:44:27.523Z,5.33
2022-10-11T21:48:29.635Z,4.83
2022-10-11T21:52:31.756Z,4.90
2022-10-11T21:56:33.914Z,4.43
2022-10-11T22:00:35.738Z,4.40
2022-10-11T22:04:37.555Z,4.63
2022-10-11T22:08:39.462Z,4.80
2022-10-11T22:12:41.249Z,3.97
2022-10-11T22:16:43.097Z,4.13
2022-10-11T22:20:44.965Z,4.30
2022-10-11T22:24:46.810Z,5.13
2022-10-11T22:28:48.988Z,4.70
2022-10-11T22:32:51.468Z,4.67
2022-10-11T22:36:53.396Z,4.60
2022-10-11T22:40:57.959Z,4.13
2022-10-11T22:45:00.095Z,4.20
2022-10-11T22:49:01.893Z,4.27
2022-10-11T22:53:05.862Z,4.50
2022-10-11T22:57:07.627Z,4.60
2022-10-11T23:01:10.950Z,4.30
2022-10-11T23:05:12.727Z,4.13
2022-10-11T23:09:14.553Z,4.30
2022-10-11T23:13:16.392Z,4.30
2022-10-11T23:17:18.229Z,4.30
2022-10-11T23:21:20.167Z,4.03
2022-10-11T23:25:21.962Z,3.33
2022-10-11T23:29:23.758Z,4.13
2022-10-11T23:33:25.601Z,3.90
2022-10-11T23:37:27.373Z,3.87
2022-10-11T23:41:29.558Z,3.90
2022-10-11T23:45:31.317Z,3.57
2022-10-11T23:49:33.104Z,3.50
2022-10-11T23:53:35.250Z,3.83
2022-10-11T23:57:37.353Z,3.37
